KLM92B ESGG-EHAM
Flight info
| Callsign | KLM92B |
|---|---|
| Flight time | 0h 36m |
| Altitude | 40000 |
| Route | VADIN DCT ABINO DCT ATTUS DCT ROCZO DCT BLUFA |
| Aircraft | B738/M-SDE2E3FGHIRWXY/LB1 |
Departure
| Time | 2026-05-06 07:17 |
|---|---|
| Airport | Göteborg Landvetter Airport (ESGG) |
Arrival
| Time | 2026-05-06 07:54 |
|---|---|
| Airport | Amsterdam Airport Schiphol (EHAM) |
| Time | Latitude | Longitude | Altitude | Speed | Heading |
|---|---|---|---|---|---|
| 2026-05-06 06:47 | 57.66850 | 12.29368 | 515 ft | 0 kts | 116° |
| 2026-05-06 06:48 | 57.66849 | 12.29371 | 515 ft | 0 kts | 116° |
| 2026-05-06 07:09 | 57.66850 | 12.29370 | 515 ft | 1 kts | 116° |
| 2026-05-06 07:09 | 57.66856 | 12.29347 | 515 ft | 3 kts | 116° |
| 2026-05-06 07:09 | 57.66863 | 12.29317 | 515 ft | 3 kts | 84° |
| 2026-05-06 07:10 | 57.66862 | 12.29292 | 515 ft | 1 kts | 121° |
| 2026-05-06 07:10 | 57.66868 | 12.29273 | 515 ft | 3 kts | 142° |
| 2026-05-06 07:10 | 57.66881 | 12.29265 | 515 ft | 3 kts | 198° |
| 2026-05-06 07:10 | 57.66893 | 12.29274 | 515 ft | 2 kts | 206° |
| 2026-05-06 07:11 | 57.66906 | 12.29286 | 515 ft | 1 kts | 206° |
| 2026-05-06 07:13 | 57.66884 | 12.29266 | 515 ft | 7 kts | 206° |
| 2026-05-06 07:13 | 57.66820 | 12.29207 | 515 ft | 13 kts | 206° |
| 2026-05-06 07:13 | 57.66783 | 12.29069 | 515 ft | 14 kts | 288° |
| 2026-05-06 07:13 | 57.66853 | 12.29010 | 515 ft | 13 kts | 25° |
| 2026-05-06 07:14 | 57.66933 | 12.29084 | 515 ft | 13 kts | 27° |
| 2026-05-06 07:14 | 57.67011 | 12.29157 | 515 ft | 12 kts | 25° |
| 2026-05-06 07:14 | 57.67091 | 12.29229 | 515 ft | 13 kts | 26° |
| 2026-05-06 07:14 | 57.67177 | 12.29307 | 515 ft | 13 kts | 26° |
| 2026-05-06 07:15 | 57.67263 | 12.29386 | 515 ft | 14 kts | 26° |
| 2026-05-06 07:15 | 57.67354 | 12.29469 | 515 ft | 14 kts | 24° |
| 2026-05-06 07:15 | 57.67441 | 12.29412 | 515 ft | 14 kts | 335° |
| 2026-05-06 07:15 | 57.67524 | 12.29454 | 515 ft | 12 kts | 23° |
| 2026-05-06 07:16 | 57.67585 | 12.29422 | 515 ft | 9 kts | 301° |
| 2026-05-06 07:16 | 57.67590 | 12.29307 | 515 ft | 9 kts | 262° |
| 2026-05-06 07:16 | 57.67587 | 12.29192 | 515 ft | 9 kts | 248° |
| 2026-05-06 07:16 | 57.67536 | 12.29120 | 515 ft | 14 kts | 204° |
| 2026-05-06 07:17 | 57.67253 | 12.28868 | 513 ft | 84 kts | 206° |
| 2026-05-06 07:17 | 57.66504 | 12.28192 | 511 ft | 152 kts | 204° |
| 2026-05-06 07:17 | 57.65488 | 12.27253 | 1060 ft | 164 kts | 204° |
| 2026-05-06 07:17 | 57.64471 | 12.26328 | 2098 ft | 163 kts | 202° |
| 2026-05-06 07:18 | 57.63431 | 12.25387 | 2749 ft | 179 kts | 204° |
| 2026-05-06 07:18 | 57.62199 | 12.24292 | 2995 ft | 207 kts | 204° |
| 2026-05-06 07:18 | 57.60828 | 12.23251 | 3284 ft | 224 kts | 188° |
| 2026-05-06 07:18 | 57.59213 | 12.22955 | 3602 ft | 243 kts | 185° |
| 2026-05-06 07:19 | 57.57540 | 12.21870 | 4007 ft | 264 kts | 210° |
| 2026-05-06 07:19 | 57.56025 | 12.19913 | 4926 ft | 264 kts | 216° |
| 2026-05-06 07:19 | 57.54557 | 12.17885 | 5704 ft | 271 kts | 217° |
| 2026-05-06 07:19 | 57.53052 | 12.15772 | 6585 ft | 272 kts | 217° |
| 2026-05-06 07:20 | 57.51537 | 12.13683 | 7376 ft | 275 kts | 217° |
| 2026-05-06 07:20 | 57.49997 | 12.11573 | 8345 ft | 275 kts | 217° |
| 2026-05-06 07:20 | 57.48445 | 12.09490 | 9303 ft | 276 kts | 217° |
| 2026-05-06 07:20 | 57.46877 | 12.07408 | 10220 ft | 279 kts | 217° |
| 2026-05-06 07:21 | 57.45247 | 12.05251 | 10629 ft | 300 kts | 217° |
| 2026-05-06 07:21 | 57.43465 | 12.02898 | 10853 ft | 326 kts | 217° |
| 2026-05-06 07:21 | 57.41583 | 12.00426 | 11429 ft | 336 kts | 217° |
| 2026-05-06 07:21 | 57.39904 | 11.98229 | 12145 ft | 339 kts | 217° |
| 2026-05-06 07:22 | 57.36276 | 11.93495 | 13779 ft | 345 kts | 218° |
| 2026-05-06 07:22 | 57.20155 | 11.72613 | 20227 ft | 358 kts | 218° |
| 2026-05-06 07:22 | 57.04053 | 11.51000 | 25351 ft | 366 kts | 221° |
| 2026-05-06 07:22 | 56.87425 | 11.27712 | 29158 ft | 383 kts | 218° |
| 2026-05-06 07:23 | 56.69743 | 11.04568 | 31983 ft | 394 kts | 218° |
| 2026-05-06 07:23 | 56.54006 | 10.83646 | 34714 ft | 387 kts | 218° |
| 2026-05-06 07:23 | 56.43283 | 10.69468 | 35903 ft | 396 kts | 218° |
| 2026-05-06 07:23 | 56.41045 | 10.66542 | 36087 ft | 398 kts | 218° |
| 2026-05-06 07:24 | 56.38824 | 10.63649 | 36336 ft | 399 kts | 218° |
| 2026-05-06 07:24 | 56.36540 | 10.60675 | 36528 ft | 401 kts | 217° |
| 2026-05-06 07:24 | 56.34297 | 10.57756 | 36720 ft | 403 kts | 217° |
| 2026-05-06 07:24 | 56.28064 | 10.49653 | 37419 ft | 405 kts | 217° |
| 2026-05-06 07:25 | 56.18826 | 10.37684 | 38272 ft | 410 kts | 217° |
| 2026-05-06 07:25 | 56.09510 | 10.25691 | 38902 ft | 417 kts | 217° |
| 2026-05-06 07:25 | 56.00026 | 10.13553 | 39626 ft | 417 kts | 217° |
| 2026-05-06 07:25 | 55.97782 | 10.10695 | 39830 ft | 416 kts | 217° |
| 2026-05-06 07:26 | 55.87405 | 9.97508 | 40010 ft | 427 kts | 217° |
| 2026-05-06 07:26 | 55.68316 | 9.73460 | 40078 ft | 439 kts | 217° |
| 2026-05-06 07:26 | 55.63815 | 9.67853 | 40017 ft | 435 kts | 216° |
| 2026-05-06 07:26 | 55.49067 | 9.49653 | 39750 ft | 404 kts | 216° |
| 2026-05-06 07:27 | 55.31103 | 9.27546 | 39819 ft | 386 kts | 216° |
| 2026-05-06 07:27 | 55.17412 | 9.10885 | 39935 ft | 386 kts | 216° |
| 2026-05-06 07:27 | 55.15234 | 9.08251 | 39950 ft | 390 kts | 216° |
| 2026-05-06 07:28 | 55.10710 | 9.02815 | 39949 ft | 399 kts | 216° |
| 2026-05-06 07:28 | 55.04053 | 8.94827 | 39948 ft | 411 kts | 216° |
| 2026-05-06 07:29 | 54.99407 | 8.89261 | 39942 ft | 419 kts | 216° |
| 2026-05-06 07:29 | 54.94563 | 8.83472 | 39941 ft | 425 kts | 216° |
| 2026-05-06 07:30 | 54.89662 | 8.77634 | 39934 ft | 428 kts | 215° |
| 2026-05-06 07:30 | 54.84767 | 8.71820 | 39938 ft | 430 kts | 215° |
| 2026-05-06 07:31 | 54.80003 | 8.66177 | 39943 ft | 431 kts | 215° |
| 2026-05-06 07:31 | 54.75091 | 8.60378 | 39929 ft | 430 kts | 215° |
| 2026-05-06 07:32 | 54.70398 | 8.54851 | 39923 ft | 428 kts | 215° |
| 2026-05-06 07:32 | 54.65608 | 8.49229 | 39918 ft | 426 kts | 215° |
| 2026-05-06 07:33 | 54.61094 | 8.43943 | 39922 ft | 425 kts | 215° |
| 2026-05-06 07:33 | 54.56656 | 8.38760 | 39927 ft | 423 kts | 215° |
| 2026-05-06 07:34 | 54.51834 | 8.33146 | 39919 ft | 422 kts | 215° |
| 2026-05-06 07:34 | 54.40036 | 8.19514 | 39838 ft | 421 kts | 214° |
| 2026-05-06 07:35 | 54.24957 | 8.02144 | 39915 ft | 418 kts | 214° |
| 2026-05-06 07:35 | 54.06349 | 7.80866 | 39951 ft | 428 kts | 214° |
| 2026-05-06 07:36 | 53.86225 | 7.57948 | 39908 ft | 440 kts | 214° |
| 2026-05-06 07:36 | 53.76339 | 7.46803 | 38746 ft | 419 kts | 214° |
| 2026-05-06 07:36 | 53.66638 | 7.35918 | 36242 ft | 417 kts | 212° |
| 2026-05-06 07:37 | 53.60283 | 7.28821 | 34982 ft | 406 kts | 211° |
| 2026-05-06 07:37 | 53.51131 | 7.18654 | 33348 ft | 387 kts | 211° |
| 2026-05-06 07:37 | 53.45936 | 7.12909 | 31776 ft | 392 kts | 211° |
| 2026-05-06 07:37 | 53.43657 | 7.10394 | 31188 ft | 392 kts | 211° |
| 2026-05-06 07:38 | 53.37730 | 7.03850 | 29055 ft | 403 kts | 213° |
| 2026-05-06 07:38 | 53.29755 | 6.92962 | 27418 ft | 381 kts | 218° |
| 2026-05-06 07:38 | 53.21777 | 6.81927 | 25758 ft | 366 kts | 218° |
| 2026-05-06 07:38 | 53.16512 | 6.74889 | 25026 ft | 371 kts | 216° |
| 2026-05-06 07:39 | 53.08034 | 6.64254 | 24152 ft | 389 kts | 217° |
| 2026-05-06 07:39 | 52.96892 | 6.50101 | 22220 ft | 370 kts | 217° |
| 2026-05-06 07:39 | 52.88875 | 6.39948 | 20363 ft | 357 kts | 217° |
| 2026-05-06 07:39 | 52.81594 | 6.29051 | 18601 ft | 355 kts | 236° |
| 2026-05-06 07:40 | 52.77971 | 6.19919 | 17376 ft | 353 kts | 235° |
| 2026-05-06 07:40 | 52.72467 | 6.06834 | 15518 ft | 350 kts | 234° |
| 2026-05-06 07:40 | 52.65593 | 5.90685 | 13354 ft | 345 kts | 235° |
| 2026-05-06 07:40 | 52.61940 | 5.82116 | 12116 ft | 343 kts | 236° |
| 2026-05-06 07:41 | 52.56492 | 5.69389 | 10355 ft | 334 kts | 235° |
| 2026-05-06 07:41 | 52.51510 | 5.57820 | 9818 ft | 290 kts | 236° |
| 2026-05-06 07:41 | 52.48567 | 5.46301 | 9420 ft | 266 kts | 255° |
| 2026-05-06 07:41 | 52.46309 | 5.34828 | 9031 ft | 263 kts | 253° |
| 2026-05-06 07:42 | 52.45659 | 5.31725 | 8943 ft | 277 kts | 252° |
| 2026-05-06 07:42 | 52.45010 | 5.28673 | 8836 ft | 289 kts | 253° |
| 2026-05-06 07:42 | 52.44339 | 5.25553 | 8707 ft | 289 kts | 253° |
| 2026-05-06 07:42 | 52.43668 | 5.22455 | 8582 ft | 288 kts | 252° |
| 2026-05-06 07:43 | 52.43008 | 5.19420 | 8475 ft | 286 kts | 252° |
| 2026-05-06 07:43 | 52.42348 | 5.16392 | 8477 ft | 281 kts | 252° |
| 2026-05-06 07:43 | 52.41684 | 5.13359 | 8473 ft | 284 kts | 252° |
| 2026-05-06 07:43 | 52.41018 | 5.10315 | 8492 ft | 285 kts | 252° |
| 2026-05-06 07:44 | 52.40350 | 5.07267 | 8495 ft | 285 kts | 252° |
| 2026-05-06 07:44 | 52.39679 | 5.04212 | 8495 ft | 283 kts | 251° |
| 2026-05-06 07:44 | 52.39018 | 5.01209 | 8494 ft | 282 kts | 251° |
| 2026-05-06 07:44 | 52.38420 | 4.98492 | 8494 ft | 282 kts | 251° |
| 2026-05-06 07:45 | 52.37753 | 4.95471 | 8498 ft | 282 kts | 252° |
| 2026-05-06 07:45 | 52.37100 | 4.92509 | 8192 ft | 284 kts | 251° |
| 2026-05-06 07:45 | 52.36434 | 4.89496 | 7942 ft | 283 kts | 252° |
| 2026-05-06 07:45 | 52.35770 | 4.86489 | 7901 ft | 280 kts | 251° |
| 2026-05-06 07:46 | 52.35111 | 4.83522 | 7814 ft | 274 kts | 251° |
| 2026-05-06 07:46 | 52.34459 | 4.80588 | 7525 ft | 273 kts | 251° |
| 2026-05-06 07:46 | 52.33815 | 4.77700 | 7349 ft | 267 kts | 252° |
| 2026-05-06 07:46 | 52.33343 | 4.74824 | 7180 ft | 260 kts | 269° |
| 2026-05-06 07:47 | 52.33609 | 4.71912 | 6942 ft | 255 kts | 286° |
| 2026-05-06 07:47 | 52.34014 | 4.69152 | 6844 ft | 248 kts | 285° |
| 2026-05-06 07:47 | 52.34419 | 4.66330 | 6319 ft | 258 kts | 285° |
| 2026-05-06 07:47 | 52.34492 | 4.63439 | 5918 ft | 268 kts | 257° |
| 2026-05-06 07:48 | 52.33666 | 4.60715 | 5678 ft | 267 kts | 237° |
| 2026-05-06 07:48 | 52.32665 | 4.58198 | 5507 ft | 259 kts | 237° |
| 2026-05-06 07:48 | 52.31712 | 4.55775 | 5302 ft | 249 kts | 238° |
| 2026-05-06 07:48 | 52.30778 | 4.53380 | 4878 ft | 250 kts | 238° |
| 2026-05-06 07:49 | 52.29750 | 4.51107 | 4423 ft | 250 kts | 220° |
| 2026-05-06 07:49 | 52.28230 | 4.49816 | 3943 ft | 246 kts | 187° |
| 2026-05-06 07:49 | 52.26610 | 4.49955 | 3571 ft | 234 kts | 158° |
| 2026-05-06 07:49 | 52.25104 | 4.50878 | 3184 ft | 231 kts | 153° |
| 2026-05-06 07:50 | 52.23679 | 4.52034 | 2751 ft | 226 kts | 136° |
| 2026-05-06 07:50 | 52.22850 | 4.54021 | 2324 ft | 213 kts | 98° |
| 2026-05-06 07:50 | 52.22984 | 4.56300 | 2190 ft | 197 kts | 73° |
| 2026-05-06 07:50 | 52.23277 | 4.58423 | 2124 ft | 185 kts | 71° |
| 2026-05-06 07:51 | 52.23804 | 4.60265 | 1954 ft | 176 kts | 60° |
| 2026-05-06 07:51 | 52.24415 | 4.61965 | 1699 ft | 168 kts | 58° |
| 2026-05-06 07:51 | 52.24999 | 4.63503 | 1463 ft | 154 kts | 57° |
| 2026-05-06 07:51 | 52.25532 | 4.64895 | 1259 ft | 142 kts | 56° |
| 2026-05-06 07:52 | 52.26057 | 4.66266 | 1086 ft | 141 kts | 56° |
| 2026-05-06 07:52 | 52.26560 | 4.67581 | 877 ft | 134 kts | 55° |
| 2026-05-06 07:52 | 52.27048 | 4.68860 | 730 ft | 133 kts | 55° |
| 2026-05-06 07:52 | 52.27548 | 4.70163 | 567 ft | 136 kts | 56° |
| 2026-05-06 07:53 | 52.28056 | 4.71493 | 372 ft | 139 kts | 54° |
| 2026-05-06 07:53 | 52.28567 | 4.72808 | 202 ft | 134 kts | 56° |
| 2026-05-06 07:53 | 52.29055 | 4.74088 | 18 ft | 132 kts | 56° |
| 2026-05-06 07:53 | 52.29484 | 4.75217 | -4 ft | 105 kts | 57° |
| 2026-05-06 07:54 | 52.29798 | 4.76032 | -5 ft | 63 kts | 58° |
| 2026-05-06 07:54 | 52.29990 | 4.76494 | -3 ft | 38 kts | 39° |
| 2026-05-06 07:54 | 52.30198 | 4.76686 | -2 ft | 21 kts | 27° |
| 2026-05-06 07:54 | 52.30265 | 4.76742 | -2 ft | 8 kts | 28° |
| 2026-05-06 07:55 | 52.30303 | 4.76798 | -2 ft | 7 kts | 55° |
| 2026-05-06 07:55 | 52.30331 | 4.76865 | -2 ft | 8 kts | 56° |
| 2026-05-06 07:55 | 52.30367 | 4.76960 | -2 ft | 12 kts | 60° |
| 2026-05-06 07:55 | 52.30416 | 4.77096 | -2 ft | 16 kts | 58° |
| 2026-05-06 07:56 | 52.30478 | 4.77250 | -2 ft | 17 kts | 57° |
| 2026-05-06 07:56 | 52.30538 | 4.77408 | -2 ft | 16 kts | 59° |
| 2026-05-06 07:56 | 52.30598 | 4.77549 | -2 ft | 14 kts | 43° |
| 2026-05-06 07:56 | 52.30688 | 4.77587 | -2 ft | 13 kts | 1° |
| 2026-05-06 07:57 | 52.30776 | 4.77598 | -2 ft | 12 kts | 3° |
| 2026-05-06 07:57 | 52.30832 | 4.77522 | -2 ft | 11 kts | 272° |
| 2026-05-06 07:57 | 52.30838 | 4.77398 | -2 ft | 12 kts | 274° |
| 2026-05-06 07:57 | 52.30842 | 4.77265 | -2 ft | 12 kts | 273° |
| 2026-05-06 07:58 | 52.30846 | 4.77148 | -2 ft | 6 kts | 274° |
| 2026-05-06 07:58 | 52.30858 | 4.77119 | -2 ft | 0 kts | 322° |
| 2026-05-06 07:58 | 52.30858 | 4.77118 | -2 ft | 0 kts | 326° |
| 2026-05-06 07:58 | 52.30872 | 4.77111 | -2 ft | 12 kts | 347° |
| 2026-05-06 07:59 | 52.30893 | 4.77111 | -2 ft | 0 kts | 1° |
| 2026-05-06 07:59 | 52.30894 | 4.77111 | -2 ft | 0 kts | 1° |
| 2026-05-06 07:59 | 52.30896 | 4.77111 | -2 ft | 1 kts | 2° |
| 2026-05-06 07:59 | 52.30902 | 4.77111 | -2 ft | 0 kts | 2° |